Terminal Aerodrome Forecast
Issued by NWS Sterling, VA

Current Version | Previous Version | Graphics & Text | Print | Product List | Glossary On
Versions: 1 2 3 4 5 6 7 8 9 10 11 12 13 14 15 16 17 18 19 20 21
785
FTUS41 KLWX 092344 RRA
TAFIAD
TAF
KIAD 092344Z 1000/1106 32008KT P6SM SCT050
     FM100200 29008KT P6SM BKN050
     FM100600 29008KT 3SM -SHSN OVC040
     FM101100 28009KT P6SM BKN035
     FM101600 29013KT P6SM BKN250=

USA.gov is the U.S. government's official web portal to all federal, state and local government web resources and services.